sensor_id;sensor_type;location;lat;lon;timestamp;pressure;altitude;pressure_sealevel;temperature;humidity
58979;BME280;44763;50.464;30.612;2022-07-31T00:01:54;100315.33;;;21.58;60.96
58979;BME280;44763;50.464;30.612;2022-07-31T00:04:21;100312.36;;;21.57;60.15
58979;BME280;44763;50.464;30.612;2022-07-31T00:06:53;100310.48;;;21.61;60.26
58979;BME280;44763;50.464;30.612;2022-07-31T00:09:20;100299.64;;;21.61;60.03
58979;BME280;44763;50.464;30.612;2022-07-31T00:11:46;100300.19;;;21.63;59.77
58979;BME280;44763;50.464;30.612;2022-07-31T00:14:12;100298.28;;;21.63;59.75
58979;BME280;44763;50.464;30.612;2022-07-31T00:16:39;100295.03;;;21.64;59.65
58979;BME280;44763;50.464;30.612;2022-07-31T00:19:06;100300.70;;;21.62;59.55
58979;BME280;44763;50.464;30.612;2022-07-31T00:21:32;100288.24;;;21.61;59.42
58979;BME280;44763;50.464;30.612;2022-07-31T00:23:58;100290.41;;;21.62;59.38
58979;BME280;44763;50.464;30.612;2022-07-31T00:26:24;100287.69;;;21.59;59.52
58979;BME280;44763;50.464;30.612;2022-07-31T00:28:51;100290.66;;;21.57;59.46
58979;BME280;44763;50.464;30.612;2022-07-31T00:31:17;100291.47;;;21.55;59.53
58979;BME280;44763;50.464;30.612;2022-07-31T00:33:43;100290.66;;;21.55;59.53
58979;BME280;44763;50.464;30.612;2022-07-31T00:36:09;100284.39;;;21.54;59.51
58979;BME280;44763;50.464;30.612;2022-07-31T00:38:38;100280.06;;;21.53;59.48
58979;BME280;44763;50.464;30.612;2022-07-31T00:41:04;100283.03;;;21.52;59.37
58979;BME280;44763;50.464;30.612;2022-07-31T00:43:31;100283.84;;;21.50;59.30
58979;BME280;44763;50.464;30.612;2022-07-31T00:45:57;100277.31;;;21.48;59.13
58979;BME280;44763;50.464;30.612;2022-07-31T00:48:24;100279.48;;;21.46;59.07
58979;BME280;44763;50.464;30.612;2022-07-31T00:50:52;100271.82;;;21.41;58.97
58979;BME280;44763;50.464;30.612;2022-07-31T00:53:18;100270.46;;;21.38;58.88
58979;BME280;44763;50.464;30.612;2022-07-31T00:55:44;100273.69;;;21.37;58.83
58979;BME280;44763;50.464;30.612;2022-07-31T00:58:10;100267.72;;;21.35;58.66
58979;BME280;44763;50.464;30.612;2022-07-31T01:00:36;100269.61;;;21.32;58.64
58979;BME280;44763;50.464;30.612;2022-07-31T01:03:03;100267.41;;;21.29;58.60
58979;BME280;44763;50.464;30.612;2022-07-31T01:05:30;100271.18;;;21.26;58.38
58979;BME280;44763;50.464;30.612;2022-07-31T01:07:58;100277.66;;;21.25;58.38
58979;BME280;44763;50.464;30.612;2022-07-31T01:13:14;100270.88;;;21.22;58.37
58979;BME280;44763;50.464;30.612;2022-07-31T01:15:44;100275.20;;;21.20;58.25
58979;BME280;44763;50.464;30.612;2022-07-31T01:18:13;100265.45;;;21.19;58.18
58979;BME280;44763;50.464;30.612;2022-07-31T01:20:41;100260.84;;;21.17;57.99
58979;BME280;44763;50.464;30.612;2022-07-31T01:26:22;100264.36;;;21.18;57.56
58979;BME280;44763;50.464;30.612;2022-07-31T01:29:15;100260.00;;;21.17;57.33
58979;BME280;44763;50.464;30.612;2022-07-31T01:31:51;100256.22;;;21.15;57.34
58979;BME280;44763;50.464;30.612;2022-07-31T01:34:31;100254.27;;;21.11;57.48
58979;BME280;44763;50.464;30.612;2022-07-31T01:37:22;100257.48;;;21.08;57.52
58979;BME280;44763;50.464;30.612;2022-07-31T01:40:00;100255.87;;;21.04;57.42
58979;BME280;44763;50.464;30.612;2022-07-31T01:42:29;100256.67;;;21.02;57.32
58979;BME280;44763;50.464;30.612;2022-07-31T01:44:59;100245.24;;;21.00;57.32
58979;BME280;44763;50.464;30.612;2022-07-31T01:47:28;100240.87;;;20.94;57.13
58979;BME280;44763;50.464;30.612;2022-07-31T01:49:57;100253.60;;;20.91;57.17
58979;BME280;44763;50.464;30.612;2022-07-31T01:52:27;100248.39;;;20.87;57.21
58979;BME280;44763;50.464;30.612;2022-07-31T01:54:55;100247.28;;;20.83;57.01
58979;BME280;44763;50.464;30.612;2022-07-31T01:57:24;100249.68;;;20.76;57.30
58979;BME280;44763;50.464;30.612;2022-07-31T01:59:58;100243.66;;;20.69;57.10
58979;BME280;44763;50.464;30.612;2022-07-31T02:02:32;100250.37;;;20.64;56.23
58979;BME280;44763;50.464;30.612;2022-07-31T02:05:02;100245.24;;;20.63;56.75
58979;BME280;44763;50.464;30.612;2022-07-31T02:07:36;100242.78;;;20.61;56.52
58979;BME280;44763;50.464;30.612;2022-07-31T02:10:07;100244.61;;;20.58;56.51
58979;BME280;44763;50.464;30.612;2022-07-31T02:12:36;100251.12;;;20.57;55.92
58979;BME280;44763;50.464;30.612;2022-07-31T02:15:05;100249.17;;;20.55;56.18
58979;BME280;44763;50.464;30.612;2022-07-31T02:17:36;100249.97;;;20.53;55.91
58979;BME280;44763;50.464;30.612;2022-07-31T02:20:15;100249.97;;;20.53;55.92
58979;BME280;44763;50.464;30.612;2022-07-31T02:22:41;100254.03;;;20.53;55.63
58979;BME280;44763;50.464;30.612;2022-07-31T02:25:09;100256.23;;;20.56;55.65
58979;BME280;44763;50.464;30.612;2022-07-31T02:27:37;100253.78;;;20.54;55.27
58979;BME280;44763;50.464;30.612;2022-07-31T02:30:06;100258.39;;;20.54;55.42
58979;BME280;44763;50.464;30.612;2022-07-31T02:32:34;100254.03;;;20.53;55.27
58979;BME280;44763;50.464;30.612;2022-07-31T02:35:03;100265.14;;;20.51;55.12
58979;BME280;44763;50.464;30.612;2022-07-31T02:37:33;100267.32;;;20.54;54.91
58979;BME280;44763;50.464;30.612;2022-07-31T02:40:00;100267.36;;;20.57;54.88
58979;BME280;44763;50.464;30.612;2022-07-31T02:42:28;100257.38;;;20.60;54.64
58979;BME280;44763;50.464;30.612;2022-07-31T02:44:55;100264.71;;;20.62;54.57
58979;BME280;44763;50.464;30.612;2022-07-31T02:47:23;100263.11;;;20.64;54.54
58979;BME280;44763;50.464;30.612;2022-07-31T02:49:50;100266.66;;;20.67;54.42
58979;BME280;44763;50.464;30.612;2022-07-31T02:52:16;100269.12;;;20.68;54.23
58979;BME280;44763;50.464;30.612;2022-07-31T02:54:44;100268.03;;;20.69;54.23
58979;BME280;44763;50.464;30.612;2022-07-31T02:57:10;100266.12;;;20.67;54.14
58979;BME280;44763;50.464;30.612;2022-07-31T02:59:37;100275.89;;;20.68;54.17
58979;BME280;44763;50.464;30.612;2022-07-31T03:02:06;100268.03;;;20.69;54.29
58979;BME280;44763;50.464;30.612;2022-07-31T03:04:34;100269.95;;;20.71;54.23
58979;BME280;44763;50.464;30.612;2022-07-31T03:07:01;100272.41;;;20.75;54.08
58979;BME280;44763;50.464;30.612;2022-07-31T03:09:27;100276.77;;;20.76;53.69
58979;BME280;44763;50.464;30.612;2022-07-31T03:11:57;100268.70;;;20.84;53.52
58979;BME280;44763;50.464;30.612;2022-07-31T03:14:24;100267.52;;;21.07;53.22
58979;BME280;44763;50.464;30.612;2022-07-31T03:16:52;100267.83;;;21.46;52.11
58979;BME280;44763;50.464;30.612;2022-07-31T03:19:19;100266.64;;;21.84;50.93
58979;BME280;44763;50.464;30.612;2022-07-31T03:21:46;100276.53;;;22.16;49.60
58979;BME280;44763;50.464;30.612;2022-07-31T03:24:14;100257.07;;;22.45;49.13
58979;BME280;44763;50.464;30.612;2022-07-31T03:26:41;100266.07;;;22.91;47.46
58979;BME280;44763;50.464;30.612;2022-07-31T03:29:08;100274.52;;;23.21;46.66
58979;BME280;44763;50.464;30.612;2022-07-31T03:31:35;100268.48;;;23.44;45.82
58979;BME280;44763;50.464;30.612;2022-07-31T03:34:03;100262.69;;;23.69;45.69
58979;BME280;44763;50.464;30.612;2022-07-31T03:36:29;100270.51;;;23.94;44.50
58979;BME280;44763;50.464;30.612;2022-07-31T03:38:58;100269.70;;;23.93;44.22
58979;BME280;44763;50.464;30.612;2022-07-31T03:41:27;100264.80;;;23.95;44.38
58979;BME280;44763;50.464;30.612;2022-07-31T03:43:53;100272.05;;;24.13;43.94
58979;BME280;44763;50.464;30.612;2022-07-31T03:46:21;100266.99;;;24.40;43.80
58979;BME280;44763;50.464;30.612;2022-07-31T03:48:47;100259.36;;;24.82;43.25
58979;BME280;44763;50.464;30.612;2022-07-31T03:51:17;100259.18;;;25.34;41.32
58979;BME280;44763;50.464;30.612;2022-07-31T03:53:45;100266.27;;;25.59;40.79
58979;BME280;44763;50.464;30.612;2022-07-31T03:56:14;100254.59;;;25.54;40.73
58979;BME280;44763;50.464;30.612;2022-07-31T03:58:42;100254.54;;;25.59;40.99
58979;BME280;44763;50.464;30.612;2022-07-31T04:01:08;100252.89;;;25.82;40.46
58979;BME280;44763;50.464;30.612;2022-07-31T04:03:36;100250.16;;;26.25;39.42
58979;BME280;44763;50.464;30.612;2022-07-31T04:06:17;100245.91;;;26.54;38.83
58979;BME280;44763;50.464;30.612;2022-07-31T04:08:44;100255.93;;;26.78;38.87
58979;BME280;44763;50.464;30.612;2022-07-31T04:11:11;100241.13;;;26.95;38.18
58979;BME280;44763;50.464;30.612;2022-07-31T04:13:38;100250.34;;;27.16;37.41
58979;BME280;44763;50.464;30.612;2022-07-31T04:16:05;100240.00;;;27.29;37.05
58979;BME280;44763;50.464;30.612;2022-07-31T04:20:38;100233.75;;;27.43;36.91
58979;BME280;44763;50.464;30.612;2022-07-31T04:23:04;100240.87;;;27.83;36.12
58979;BME280;44763;50.464;30.612;2022-07-31T04:25:49;100242.06;;;28.29;35.48
58979;BME280;44763;50.464;30.612;2022-07-31T04:28:17;100246.91;;;28.58;34.22
58979;BME280;44763;50.464;30.612;2022-07-31T04:30:43;100250.66;;;28.48;34.17
58979;BME280;44763;50.464;30.612;2022-07-31T04:33:09;100253.44;;;28.23;34.50
58979;BME280;44763;50.464;30.612;2022-07-31T04:35:36;100249.95;;;27.94;35.14
58979;BME280;44763;50.464;30.612;2022-07-31T04:38:02;100244.84;;;27.76;35.63
58979;BME280;44763;50.464;30.612;2022-07-31T04:40:31;100236.71;;;27.57;36.08
58979;BME280;44763;50.464;30.612;2022-07-31T04:42:57;100243.62;;;27.55;36.13
58979;BME280;44763;50.464;30.612;2022-07-31T04:45:24;100239.66;;;27.61;36.29
58979;BME280;44763;50.464;30.612;2022-07-31T04:47:51;100240.08;;;27.54;36.32
58979;BME280;44763;50.464;30.612;2022-07-31T04:50:18;100236.06;;;27.49;36.56
58979;BME280;44763;50.464;30.612;2022-07-31T04:52:46;100242.19;;;27.57;36.76
58979;BME280;44763;50.464;30.612;2022-07-31T04:55:13;100237.99;;;27.76;35.95
58979;BME280;44763;50.464;30.612;2022-07-31T04:57:40;100249.31;;;27.84;36.01
58979;BME280;44763;50.464;30.612;2022-07-31T05:00:08;100239.78;;;27.56;36.00
58979;BME280;44763;50.464;30.612;2022-07-31T05:02:36;100252.99;;;27.21;36.68
58979;BME280;44763;50.464;30.612;2022-07-31T05:05:04;100243.18;;;27.20;37.29
58979;BME280;44763;50.464;30.612;2022-07-31T05:07:34;100248.59;;;27.53;36.98
58979;BME280;44763;50.464;30.612;2022-07-31T05:10:03;100241.36;;;27.99;35.56
58979;BME280;44763;50.464;30.612;2022-07-31T05:12:30;100249.38;;;28.09;35.23
58979;BME280;44763;50.464;30.612;2022-07-31T05:14:57;100236.87;;;28.17;34.95
58979;BME280;44763;50.464;30.612;2022-07-31T05:17:23;100229.53;;;28.26;35.19
58979;BME280;44763;50.464;30.612;2022-07-31T05:19:51;100234.50;;;28.12;35.39
58979;BME280;44763;50.464;30.612;2022-07-31T05:22:19;100229.38;;;28.20;35.54
58979;BME280;44763;50.464;30.612;2022-07-31T05:24:50;100226.22;;;28.15;35.11
58979;BME280;44763;50.464;30.612;2022-07-31T05:27:16;100224.63;;;27.86;35.87
58979;BME280;44763;50.464;30.612;2022-07-31T05:29:42;100229.78;;;27.76;35.55
58979;BME280;44763;50.464;30.612;2022-07-31T05:32:09;100227.90;;;27.61;36.09
58979;BME280;44763;50.464;30.612;2022-07-31T05:34:36;100223.03;;;27.71;36.12
58979;BME280;44763;50.464;30.612;2022-07-31T05:37:03;100223.42;;;27.92;36.02
58979;BME280;44763;50.464;30.612;2022-07-31T05:39:31;100229.55;;;27.87;35.86
58979;BME280;44763;50.464;30.612;2022-07-31T05:42:16;100216.00;;;27.54;36.04
58979;BME280;44763;50.464;30.612;2022-07-31T05:45:01;100224.55;;;27.06;37.01
58979;BME280;44763;50.464;30.612;2022-07-31T05:47:28;100229.15;;;26.94;37.53
58979;BME280;44763;50.464;30.612;2022-07-31T05:49:54;100228.96;;;27.18;37.49
58979;BME280;44763;50.464;30.612;2022-07-31T05:52:21;100232.78;;;27.64;36.59
58979;BME280;44763;50.464;30.612;2022-07-31T05:54:49;100230.61;;;28.02;35.98
58979;BME280;44763;50.464;30.612;2022-07-31T05:57:18;100226.80;;;28.37;34.88
58979;BME280;44763;50.464;30.612;2022-07-31T05:59:45;100234.02;;;28.44;34.54
58979;BME280;44763;50.464;30.612;2022-07-31T06:02:12;100232.14;;;28.31;35.17
58979;BME280;44763;50.464;30.612;2022-07-31T06:04:52;100224.94;;;28.35;35.11
58979;BME280;44763;50.464;30.612;2022-07-31T06:07:18;100226.39;;;28.66;34.55
58979;BME280;44763;50.464;30.612;2022-07-31T06:09:46;100219.78;;;28.79;34.31
58979;BME280;44763;50.464;30.612;2022-07-31T06:12:12;100216.73;;;28.80;34.99
58979;BME280;44763;50.464;30.612;2022-07-31T06:14:39;100223.03;;;28.69;34.31
58979;BME280;44763;50.464;30.612;2022-07-31T06:17:06;100232.81;;;28.73;34.46
58979;BME280;44763;50.464;30.612;2022-07-31T06:19:34;100232.05;;;28.81;34.21
58979;BME280;44763;50.464;30.612;2022-07-31T06:22:00;100235.05;;;28.82;34.60
58979;BME280;44763;50.464;30.612;2022-07-31T06:24:28;100238.30;;;28.73;34.04
58979;BME280;44763;50.464;30.612;2022-07-31T06:26:58;100228.41;;;28.52;34.58
58979;BME280;44763;50.464;30.612;2022-07-31T06:29:25;100229.67;;;28.43;34.97
58979;BME280;44763;50.464;30.612;2022-07-31T06:31:55;100226.05;;;28.45;35.69
58979;BME280;44763;50.464;30.612;2022-07-31T06:34:22;100226.16;;;28.54;35.23
58979;BME280;44763;50.464;30.612;2022-07-31T06:36:49;100226.01;;;28.59;35.33
58979;BME280;44763;50.464;30.612;2022-07-31T06:39:19;100221.09;;;28.59;35.28
58979;BME280;44763;50.464;30.612;2022-07-31T06:42:04;100217.78;;;28.59;35.33
58979;BME280;44763;50.464;30.612;2022-07-31T06:44:31;100213.91;;;28.49;35.26
58979;BME280;44763;50.464;30.612;2022-07-31T06:47:16;100207.45;;;28.56;35.83
58979;BME280;44763;50.464;30.612;2022-07-31T06:49:48;100205.12;;;28.72;35.33
58979;BME280;44763;50.464;30.612;2022-07-31T06:52:14;100201.67;;;28.89;32.89
58979;BME280;44763;50.464;30.612;2022-07-31T06:54:41;100189.41;;;28.86;33.08
58979;BME280;44763;50.464;30.612;2022-07-31T06:57:12;100189.94;;;28.66;32.84
58979;BME280;44763;50.464;30.612;2022-07-31T06:59:39;100197.64;;;28.41;33.46
58979;BME280;44763;50.464;30.612;2022-07-31T07:02:06;100189.34;;;28.32;33.41
58979;BME280;44763;50.464;30.612;2022-07-31T07:04:33;100187.67;;;28.34;33.27
58979;BME280;44763;50.464;30.612;2022-07-31T07:07:00;100184.62;;;28.47;33.43
58979;BME280;44763;50.464;30.612;2022-07-31T07:09:26;100176.59;;;28.73;33.08
58979;BME280;44763;50.464;30.612;2022-07-31T07:11:53;100185.55;;;28.76;32.52
58979;BME280;44763;50.464;30.612;2022-07-31T07:14:19;100170.92;;;28.69;32.16
58979;BME280;44763;50.464;30.612;2022-07-31T07:16:46;100176.33;;;28.72;32.39
58979;BME280;44763;50.464;30.612;2022-07-31T07:19:12;100179.26;;;28.76;32.56
58979;BME280;44763;50.464;30.612;2022-07-31T07:21:39;100177.48;;;28.91;32.21
58979;BME280;44763;50.464;30.612;2022-07-31T07:24:08;100182.48;;;29.20;31.46
58979;BME280;44763;50.464;30.612;2022-07-31T07:26:36;100184.34;;;29.51;30.91
58979;BME280;44763;50.464;30.612;2022-07-31T07:29:03;100168.12;;;29.52;30.94
58979;BME280;44763;50.464;30.612;2022-07-31T07:31:30;100162.26;;;29.36;31.42
58979;BME280;44763;50.464;30.612;2022-07-31T07:33:56;100191.14;;;28.93;31.27
58979;BME280;44763;50.464;30.612;2022-07-31T07:36:23;100181.25;;;28.39;32.34
58979;BME280;44763;50.464;30.612;2022-07-31T07:38:52;100179.37;;;28.14;32.63
58979;BME280;44763;50.464;30.612;2022-07-31T07:41:19;100196.13;;;28.01;32.75
58979;BME280;44763;50.464;30.612;2022-07-31T07:43:46;100176.01;;;27.81;33.84
58979;BME280;44763;50.464;30.612;2022-07-31T07:46:12;100165.42;;;27.76;33.88
58979;BME280;44763;50.464;30.612;2022-07-31T07:48:40;100147.67;;;27.49;33.52
58979;BME280;44763;50.464;30.612;2022-07-31T07:51:08;100177.09;;;27.68;34.22
58979;BME280;44763;50.464;30.612;2022-07-31T07:53:38;100170.61;;;27.64;33.38
58979;BME280;44763;50.464;30.612;2022-07-31T07:56:14;100177.09;;;27.68;33.55
58979;BME280;44763;50.464;30.612;2022-07-31T07:58:50;100174.61;;;27.69;33.82
58979;BME280;44763;50.464;30.612;2022-07-31T08:01:35;100167.90;;;27.75;33.73
58979;BME280;44763;50.464;30.612;2022-07-31T08:04:03;100174.38;;;27.80;33.88
58979;BME280;44763;50.464;30.612;2022-07-31T08:06:30;100176.31;;;27.79;33.88
58979;BME280;44763;50.464;30.612;2022-07-31T08:08:57;100167.14;;;27.72;33.95
58979;BME280;44763;50.464;30.612;2022-07-31T08:11:42;100165.27;;;27.70;34.24
58979;BME280;44763;50.464;30.612;2022-07-31T08:14:11;100158.81;;;27.77;34.06
58979;BME280;44763;50.464;30.612;2022-07-31T08:16:45;100165.86;;;27.81;33.89
58979;BME280;44763;50.464;30.612;2022-07-31T08:19:11;100168.72;;;27.87;33.51
58979;BME280;44763;50.464;30.612;2022-07-31T08:21:37;100158.30;;;27.89;33.20
58979;BME280;44763;50.464;30.612;2022-07-31T08:24:05;100158.19;;;27.69;33.43
58979;BME280;44763;50.464;30.612;2022-07-31T08:26:33;100166.00;;;27.62;33.54
58979;BME280;44763;50.464;30.612;2022-07-31T08:29:17;100156.42;;;27.62;34.04
58979;BME280;44763;50.464;30.612;2022-07-31T08:31:44;100156.78;;;27.58;33.58
58979;BME280;44763;50.464;30.612;2022-07-31T08:34:15;100155.22;;;27.54;33.96
58979;BME280;44763;50.464;30.612;2022-07-31T08:36:41;100170.08;;;27.51;34.39
58979;BME280;44763;50.464;30.612;2022-07-31T08:39:08;100156.89;;;27.53;34.27
58979;BME280;44763;50.464;30.612;2022-07-31T08:41:46;100162.09;;;27.52;33.46
58979;BME280;44763;50.464;30.612;2022-07-31T08:44:14;100155.59;;;27.50;32.78
58979;BME280;44763;50.464;30.612;2022-07-31T08:46:42;100151.14;;;27.52;32.43
58979;BME280;44763;50.464;30.612;2022-07-31T08:49:14;100144.27;;;27.54;33.01
58979;BME280;44763;50.464;30.612;2022-07-31T08:51:43;100158.55;;;27.65;32.77
58979;BME280;44763;50.464;30.612;2022-07-31T08:54:13;100137.34;;;27.71;33.02
58979;BME280;44763;50.464;30.612;2022-07-31T08:56:41;100155.68;;;27.70;32.78
58979;BME280;44763;50.464;30.612;2022-07-31T08:59:07;100134.95;;;27.67;32.38
58979;BME280;44763;50.464;30.612;2022-07-31T09:01:35;100133.95;;;27.63;32.03
58979;BME280;44763;50.464;30.612;2022-07-31T09:04:02;100146.41;;;27.69;32.16
58979;BME280;44763;50.464;30.612;2022-07-31T09:06:30;100125.88;;;27.80;32.26
58979;BME280;44763;50.464;30.612;2022-07-31T09:08:58;100118.63;;;27.87;31.56
58979;BME280;44763;50.464;30.612;2022-07-31T09:11:24;100129.65;;;27.84;32.25
58979;BME280;44763;50.464;30.612;2022-07-31T09:14:08;100120.67;;;27.81;32.28
58979;BME280;44763;50.464;30.612;2022-07-31T09:16:44;100106.18;;;27.81;31.97
58979;BME280;44763;50.464;30.612;2022-07-31T09:19:15;100115.05;;;27.89;31.64
58979;BME280;44763;50.464;30.612;2022-07-31T09:21:43;100116.92;;;28.02;30.46
58979;BME280;44763;50.464;30.612;2022-07-31T09:24:12;100128.68;;;28.03;30.54
58979;BME280;44763;50.464;30.612;2022-07-31T09:26:42;100107.59;;;27.92;30.16
58979;BME280;44763;50.464;30.612;2022-07-31T09:29:09;100108.73;;;27.88;30.78
58979;BME280;44763;50.464;30.612;2022-07-31T09:31:39;100117.78;;;27.89;31.76
58979;BME280;44763;50.464;30.612;2022-07-31T09:34:07;100110.06;;;27.91;31.83
58979;BME280;44763;50.464;30.612;2022-07-31T09:36:39;100096.63;;;27.92;31.36
58979;BME280;44763;50.464;30.612;2022-07-31T09:39:24;100106.08;;;27.97;31.14
58979;BME280;44763;50.464;30.612;2022-07-31T09:42:09;100110.38;;;28.01;31.47
58979;BME280;44763;50.464;30.612;2022-07-31T09:44:45;100103.11;;;28.07;31.67
58979;BME280;44763;50.464;30.612;2022-07-31T09:47:23;100112.20;;;28.17;30.96
58979;BME280;44763;50.464;30.612;2022-07-31T09:50:00;100111.20;;;28.24;31.17
58979;BME280;44763;50.464;30.612;2022-07-31T09:52:30;100103.22;;;28.25;31.33
58979;BME280;44763;50.464;30.612;2022-07-31T09:57:37;100095.75;;;28.28;31.65
58979;BME280;44763;50.464;30.612;2022-07-31T10:00:08;100083.52;;;28.34;31.59
58979;BME280;44763;50.464;30.612;2022-07-31T10:02:38;100097.64;;;28.39;31.08
58979;BME280;44763;50.464;30.612;2022-07-31T10:05:06;100086.08;;;28.30;31.46
58979;BME280;44763;50.464;30.612;2022-07-31T10:07:35;100088.94;;;28.25;31.77
58979;BME280;44763;50.464;30.612;2022-07-31T10:10:09;100083.16;;;28.27;31.92
58979;BME280;44763;50.464;30.612;2022-07-31T10:12:46;100112.23;;;28.37;31.34
58979;BME280;44763;50.464;30.612;2022-07-31T10:15:16;100090.01;;;28.27;31.22
58979;BME280;44763;50.464;30.612;2022-07-31T10:17:46;100083.12;;;28.18;31.89
58979;BME280;44763;50.464;30.612;2022-07-31T10:20:19;100075.13;;;28.19;31.93
58979;BME280;44763;50.464;30.612;2022-07-31T10:23:13;100074.70;;;28.26;31.98
58979;BME280;44763;50.464;30.612;2022-07-31T10:25:39;100073.05;;;28.36;31.80
58979;BME280;44763;50.464;30.612;2022-07-31T10:28:09;100083.25;;;28.44;31.29
58979;BME280;44763;50.464;30.612;2022-07-31T10:30:36;100072.64;;;28.31;31.64
58979;BME280;44763;50.464;30.612;2022-07-31T10:33:04;100064.63;;;28.24;31.74
58979;BME280;44763;50.464;30.612;2022-07-31T10:35:50;100059.00;;;28.18;32.27
58979;BME280;44763;50.464;30.612;2022-07-31T10:41:59;100050.55;;;28.17;32.66
58979;BME280;44763;50.464;30.612;2022-07-31T10:44:40;100055.26;;;28.25;32.84
58979;BME280;44763;50.464;30.612;2022-07-31T10:47:18;100062.35;;;28.37;32.41
58979;BME280;44763;50.464;30.612;2022-07-31T10:50:01;100060.59;;;28.41;32.47
58979;BME280;44763;50.464;30.612;2022-07-31T10:52:35;100048.93;;;28.47;32.45
58979;BME280;44763;50.464;30.612;2022-07-31T10:55:19;100049.11;;;28.50;32.63
58979;BME280;44763;50.464;30.612;2022-07-31T10:58:12;100053.97;;;28.53;32.92
58979;BME280;44763;50.464;30.612;2022-07-31T11:01:06;100046.58;;;28.54;32.96
58979;BME280;44763;50.464;30.612;2022-07-31T11:03:45;100041.12;;;28.51;33.30
58979;BME280;44763;50.464;30.612;2022-07-31T11:06:21;100043.63;;;28.50;33.41
58979;BME280;44763;50.464;30.612;2022-07-31T11:08:57;100049.06;;;28.53;33.28
58979;BME280;44763;50.464;30.612;2022-07-31T11:11:40;100046.81;;;28.44;33.41
58979;BME280;44763;50.464;30.612;2022-07-31T11:14:33;100035.88;;;28.32;33.63
58979;BME280;44763;50.464;30.612;2022-07-31T11:17:08;100032.25;;;28.34;34.06
58979;BME280;44763;50.464;30.612;2022-07-31T11:19:38;100030.75;;;28.40;34.10
58979;BME280;44763;50.464;30.612;2022-07-31T11:22:11;100016.09;;;28.44;33.99
58979;BME280;44763;50.464;30.612;2022-07-31T11:24:39;100031.30;;;28.50;34.02
58979;BME280;44763;50.464;30.612;2022-07-31T11:27:05;100028.37;;;28.58;32.52
58979;BME280;44763;50.464;30.612;2022-07-31T11:29:37;100036.12;;;28.65;31.94
58979;BME280;44763;50.464;30.612;2022-07-31T11:34:51;100004.70;;;28.71;32.59
58979;BME280;44763;50.464;30.612;2022-07-31T11:37:23;100015.33;;;28.72;32.73
58979;BME280;44763;50.464;30.612;2022-07-31T11:39:52;100010.59;;;28.76;32.29
58979;BME280;44763;50.464;30.612;2022-07-31T11:42:21;100025.67;;;28.76;32.22
58979;BME280;44763;50.464;30.612;2022-07-31T11:44:49;100011.80;;;28.72;31.97
58979;BME280;44763;50.464;30.612;2022-07-31T11:47:15;100010.50;;;28.69;31.95
58979;BME280;44763;50.464;30.612;2022-07-31T11:49:41;100003.96;;;28.68;32.65
58979;BME280;44763;50.464;30.612;2022-07-31T11:52:10;100000.33;;;28.70;32.46
58979;BME280;44763;50.464;30.612;2022-07-31T11:54:38;100001.97;;;28.71;32.49
58979;BME280;44763;50.464;30.612;2022-07-31T11:57:05;100009.53;;;28.74;31.92
58979;BME280;44763;50.464;30.612;2022-07-31T11:59:36;100003.56;;;28.72;32.17
58979;BME280;44763;50.464;30.612;2022-07-31T12:02:08;100011.80;;;28.72;32.22
58979;BME280;44763;50.464;30.612;2022-07-31T12:04:38;100015.33;;;28.72;32.22
58979;BME280;44763;50.464;30.612;2022-07-31T12:07:07;99994.53;;;28.71;32.00
58979;BME280;44763;50.464;30.612;2022-07-31T12:09:35;100018.73;;;28.69;32.23
58979;BME280;44763;50.464;30.612;2022-07-31T12:12:03;99999.28;;;28.68;32.17
58979;BME280;44763;50.464;30.612;2022-07-31T12:17:04;100015.02;;;28.74;32.54
58979;BME280;44763;50.464;30.612;2022-07-31T12:19:34;99999.54;;;28.78;32.22
58979;BME280;44763;50.464;30.612;2022-07-31T12:22:18;99990.45;;;28.80;32.15
58979;BME280;44763;50.464;30.612;2022-07-31T12:24:45;99997.62;;;28.79;32.19
58979;BME280;44763;50.464;30.612;2022-07-31T12:27:14;99982.05;;;28.77;32.20
58979;BME280;44763;50.464;30.612;2022-07-31T12:29:42;99978.66;;;28.71;32.46
58979;BME280;44763;50.464;30.612;2022-07-31T12:32:09;99996.22;;;28.70;32.16
58979;BME280;44763;50.464;30.612;2022-07-31T12:34:38;99990.82;;;28.67;32.23
58979;BME280;44763;50.464;30.612;2022-07-31T12:37:11;99988.31;;;28.68;32.44
58979;BME280;44763;50.464;30.612;2022-07-31T12:39:54;100014.30;;;28.71;32.40
58979;BME280;44763;50.464;30.612;2022-07-31T12:42:36;99989.05;;;28.71;32.15
58979;BME280;44763;50.464;30.612;2022-07-31T12:45:02;99983.53;;;28.63;32.19
58979;BME280;44763;50.464;30.612;2022-07-31T12:47:32;99983.84;;;28.52;32.46
58979;BME280;44763;50.464;30.612;2022-07-31T12:50:00;99975.05;;;28.53;32.43
58979;BME280;44763;50.464;30.612;2022-07-31T12:52:28;99973.77;;;28.59;32.32
58979;BME280;44763;50.464;30.612;2022-07-31T12:54:56;99974.68;;;28.66;32.09
58979;BME280;44763;50.464;30.612;2022-07-31T12:57:23;99988.56;;;28.69;31.93
58979;BME280;44763;50.464;30.612;2022-07-31T12:59:49;99976.80;;;28.69;32.13
58979;BME280;44763;50.464;30.612;2022-07-31T13:02:15;99989.50;;;28.65;32.36
58979;BME280;44763;50.464;30.612;2022-07-31T13:04:42;99957.48;;;28.63;32.27
58979;BME280;44763;50.464;30.612;2022-07-31T13:07:08;99966.37;;;28.60;32.25
58979;BME280;44763;50.464;30.612;2022-07-31T13:09:35;100000.16;;;28.58;32.21
58979;BME280;44763;50.464;30.612;2022-07-31T13:12:02;99973.36;;;28.54;32.05
58979;BME280;44763;50.464;30.612;2022-07-31T13:14:29;99993.23;;;28.49;32.50